Terminal Aerodrome Forecast
Issued by NWS El Paso, TX

Home | Current Version | Previous Version | Text Only | Print | Product List | Glossary On
Versions: 1 2 3 4 5 6 7 8 9 10 11 12 13
000
FTUS44 KEPZ 241257 AAA
TAFELP
TAF AMD
KELP 241257Z 2413/2512 36005KT P6SM SKC
     FM241500 30008KT P6SM SKC
     FM241800 27014G25KT P6SM SKC
     FM242100 26019G30KT P6SM SKC
     FM250300 29012G21KT P6SM FEW080 SCT250=

USA.gov is the U.S. government's official web portal to all federal, state and local government web resources and services.